sensor_id;sensor_type;location;lat;lon;timestamp;pressure;altitude;pressure_sealevel;temperature;humidity
59531;BME280;45349;48.692;8.186;2022-12-07T00:01:16;98835.19;;;2.75;100.00
59531;BME280;45349;48.692;8.186;2022-12-07T00:03:45;98827.75;;;2.70;100.00
59531;BME280;45349;48.692;8.186;2022-12-07T00:06:13;98823.22;;;2.74;100.00
59531;BME280;45349;48.692;8.186;2022-12-07T00:08:41;98825.59;;;2.77;100.00
59531;BME280;45349;48.692;8.186;2022-12-07T00:11:09;98816.03;;;2.79;100.00
59531;BME280;45349;48.692;8.186;2022-12-07T00:13:39;98828.91;;;2.79;100.00
59531;BME280;45349;48.692;8.186;2022-12-07T00:16:07;98814.47;;;2.76;100.00
59531;BME280;45349;48.692;8.186;2022-12-07T00:18:35;98817.69;;;2.80;100.00
59531;BME280;45349;48.692;8.186;2022-12-07T00:21:02;98826.16;;;2.82;100.00
59531;BME280;45349;48.692;8.186;2022-12-07T00:23:29;98824.28;;;2.84;100.00
59531;BME280;45349;48.692;8.186;2022-12-07T00:25:56;98824.94;;;2.88;100.00
59531;BME280;45349;48.692;8.186;2022-12-07T00:28:22;98821.19;;;2.79;100.00
59531;BME280;45349;48.692;8.186;2022-12-07T00:30:50;98821.09;;;2.80;100.00
59531;BME280;45349;48.692;8.186;2022-12-07T00:33:17;98818.53;;;2.80;100.00
59531;BME280;45349;48.692;8.186;2022-12-07T00:35:43;98821.09;;;2.80;100.00
59531;BME280;45349;48.692;8.186;2022-12-07T00:38:10;98819.13;;;2.84;100.00
59531;BME280;45349;48.692;8.186;2022-12-07T00:40:36;98820.16;;;2.82;100.00
59531;BME280;45349;48.692;8.186;2022-12-07T00:43:03;98811.50;;;2.83;100.00
59531;BME280;45349;48.692;8.186;2022-12-07T00:45:29;98813.91;;;2.86;100.00
59531;BME280;45349;48.692;8.186;2022-12-07T00:47:57;98812.78;;;2.90;100.00
59531;BME280;45349;48.692;8.186;2022-12-07T00:50:24;98814.53;;;2.89;100.00
59531;BME280;45349;48.692;8.186;2022-12-07T00:52:50;98818.88;;;2.89;100.00
59531;BME280;45349;48.692;8.186;2022-12-07T00:55:17;98813.78;;;2.87;100.00
59531;BME280;45349;48.692;8.186;2022-12-07T00:57:43;98812.88;;;2.88;100.00
59531;BME280;45349;48.692;8.186;2022-12-07T01:00:10;98812.88;;;2.88;100.00
59531;BME280;45349;48.692;8.186;2022-12-07T01:02:37;98807.91;;;2.85;100.00
59531;BME280;45349;48.692;8.186;2022-12-07T01:05:06;98813.16;;;2.84;100.00
59531;BME280;45349;48.692;8.186;2022-12-07T01:07:33;98818.59;;;2.79;100.00
59531;BME280;45349;48.692;8.186;2022-12-07T01:09:59;98819.31;;;2.81;100.00
59531;BME280;45349;48.692;8.186;2022-12-07T01:12:26;98821.63;;;2.86;100.00
59531;BME280;45349;48.692;8.186;2022-12-07T01:14:52;98819.78;;;2.88;100.00
59531;BME280;45349;48.692;8.186;2022-12-07T01:17:19;98817.94;;;2.90;100.00
59531;BME280;45349;48.692;8.186;2022-12-07T01:19:45;98819.69;;;2.89;100.00
59531;BME280;45349;48.692;8.186;2022-12-07T01:22:13;98814.63;;;2.88;100.00
59531;BME280;45349;48.692;8.186;2022-12-07T01:24:40;98817.09;;;2.89;100.00
59531;BME280;45349;48.692;8.186;2022-12-07T01:27:06;98819.88;;;2.86;100.00
59531;BME280;45349;48.692;8.186;2022-12-07T01:29:33;98817.41;;;2.85;100.00
59531;BME280;45349;48.692;8.186;2022-12-07T01:31:59;98826.06;;;2.84;100.00
59531;BME280;45349;48.692;8.186;2022-12-07T01:34:26;98821.53;;;2.87;100.00
59531;BME280;45349;48.692;8.186;2022-12-07T01:36:52;98825.88;;;2.87;100.00
59531;BME280;45349;48.692;8.186;2022-12-07T01:39:20;98832.03;;;2.84;100.00
59531;BME280;45349;48.692;8.186;2022-12-07T01:41:47;98835.06;;;2.91;100.00
59531;BME280;45349;48.692;8.186;2022-12-07T01:44:20;98844.91;;;2.84;100.00
59531;BME280;45349;48.692;8.186;2022-12-07T01:46:47;98834.53;;;2.86;100.00
59531;BME280;45349;48.692;8.186;2022-12-07T01:49:28;98839.75;;;2.84;100.00
59531;BME280;45349;48.692;8.186;2022-12-07T01:52:00;98833.78;;;2.84;100.00
59531;BME280;45349;48.692;8.186;2022-12-07T01:54:30;98830.56;;;2.80;100.00
59531;BME280;45349;48.692;8.186;2022-12-07T01:56:57;98840.06;;;2.79;100.00
59531;BME280;45349;48.692;8.186;2022-12-07T01:59:25;98837.69;;;2.76;100.00
59531;BME280;45349;48.692;8.186;2022-12-07T02:01:52;98838.41;;;2.78;100.00
59531;BME280;45349;48.692;8.186;2022-12-07T02:04:21;98839.22;;;2.79;100.00
59531;BME280;45349;48.692;8.186;2022-12-07T02:06:48;98837.69;;;2.76;100.00
59531;BME280;45349;48.692;8.186;2022-12-07T02:09:15;98833.53;;;2.74;100.00
59531;BME280;45349;48.692;8.186;2022-12-07T02:11:43;98838.06;;;2.70;100.00
59531;BME280;45349;48.692;8.186;2022-12-07T02:14:09;98827.31;;;2.63;100.00
59531;BME280;45349;48.692;8.186;2022-12-07T02:16:47;98830.72;;;2.64;100.00
59531;BME280;45349;48.692;8.186;2022-12-07T02:19:37;98823.16;;;2.61;100.00
59531;BME280;45349;48.692;8.186;2022-12-07T02:22:16;98821.13;;;2.66;100.00
59531;BME280;45349;48.692;8.186;2022-12-07T02:24:52;98826.59;;;2.61;100.00
59531;BME280;45349;48.692;8.186;2022-12-07T02:27:34;98824.09;;;2.60;100.00
59531;BME280;45349;48.692;8.186;2022-12-07T02:30:06;98826.03;;;2.56;100.00
59531;BME280;45349;48.692;8.186;2022-12-07T02:32:49;98826.31;;;2.51;100.00
59531;BME280;45349;48.692;8.186;2022-12-07T02:35:19;98818.69;;;2.50;100.00
59531;BME280;45349;48.692;8.186;2022-12-07T02:37:57;98813.63;;;2.48;100.00
59531;BME280;45349;48.692;8.186;2022-12-07T02:40:28;98809.69;;;2.43;100.00
59531;BME280;45349;48.692;8.186;2022-12-07T02:43:02;98809.69;;;2.43;100.00
59531;BME280;45349;48.692;8.186;2022-12-07T02:45:34;98809.03;;;2.39;100.00
59531;BME280;45349;48.692;8.186;2022-12-07T02:48:04;98805.34;;;2.43;100.00
59531;BME280;45349;48.692;8.186;2022-12-07T02:50:32;98807.19;;;2.41;100.00
59531;BME280;45349;48.692;8.186;2022-12-07T02:52:58;98794.31;;;2.41;100.00
59531;BME280;45349;48.692;8.186;2022-12-07T02:55:28;98792.84;;;2.37;100.00
59531;BME280;45349;48.692;8.186;2022-12-07T02:58:16;98792.09;;;2.35;100.00
59531;BME280;45349;48.692;8.186;2022-12-07T03:00:54;98799.94;;;2.33;100.00
59531;BME280;45349;48.692;8.186;2022-12-07T03:03:24;98800.56;;;2.37;100.00
59531;BME280;45349;48.692;8.186;2022-12-07T03:06:08;98798.91;;;2.36;100.00
59531;BME280;45349;48.692;8.186;2022-12-07T03:08:44;98807.66;;;2.33;100.00
59531;BME280;45349;48.692;8.186;2022-12-07T03:11:17;98808.41;;;2.35;100.00
59531;BME280;45349;48.692;8.186;2022-12-07T03:13:50;98802.50;;;2.33;100.00
59531;BME280;45349;48.692;8.186;2022-12-07T03:16:24;98803.50;;;2.31;100.00
59531;BME280;45349;48.692;8.186;2022-12-07T03:18:55;98799.19;;;2.31;100.00
59531;BME280;45349;48.692;8.186;2022-12-07T03:21:26;98804.34;;;2.31;100.00
59531;BME280;45349;48.692;8.186;2022-12-07T03:23:56;98800.66;;;2.35;100.00
59531;BME280;45349;48.692;8.186;2022-12-07T03:26:28;98804.78;;;2.38;100.00
59531;BME280;45349;48.692;8.186;2022-12-07T03:29:00;98811.53;;;2.41;100.00
59531;BME280;45349;48.692;8.186;2022-12-07T03:31:31;98801.59;;;2.34;100.00
59531;BME280;45349;48.692;8.186;2022-12-07T03:34:05;98792.84;;;2.37;100.00
59531;BME280;45349;48.692;8.186;2022-12-07T03:36:37;98784.56;;;2.32;100.00
59531;BME280;45349;48.692;8.186;2022-12-07T03:39:14;98795.06;;;2.29;100.00
59531;BME280;45349;48.692;8.186;2022-12-07T03:41:44;98787.44;;;2.27;100.00
59531;BME280;45349;48.692;8.186;2022-12-07T03:44:12;98790.81;;;2.28;100.00
59531;BME280;45349;48.692;8.186;2022-12-07T03:46:44;98791.56;;;2.30;100.00
59531;BME280;45349;48.692;8.186;2022-12-07T03:49:20;98790.00;;;2.27;100.00
59531;BME280;45349;48.692;8.186;2022-12-07T03:51:53;98792.59;;;2.27;100.00
59531;BME280;45349;48.692;8.186;2022-12-07T03:54:23;98793.31;;;2.29;100.00
59531;BME280;45349;48.692;8.186;2022-12-07T03:56:52;98792.22;;;2.33;100.00
59531;BME280;45349;48.692;8.186;2022-12-07T03:59:20;98794.59;;;2.36;100.00
59531;BME280;45349;48.692;8.186;2022-12-07T04:01:53;98783.44;;;2.36;100.00
59531;BME280;45349;48.692;8.186;2022-12-07T04:04:20;98779.31;;;2.33;100.00
59531;BME280;45349;48.692;8.186;2022-12-07T04:06:47;98783.56;;;2.34;100.00
59531;BME280;45349;48.692;8.186;2022-12-07T04:09:13;98798.09;;;2.35;100.00
59531;BME280;45349;48.692;8.186;2022-12-07T04:11:40;98790.00;;;2.42;100.00
59531;BME280;45349;48.692;8.186;2022-12-07T04:14:07;98798.16;;;2.34;100.00
59531;BME280;45349;48.692;8.186;2022-12-07T04:16:46;98778.47;;;2.33;100.00
59531;BME280;45349;48.692;8.186;2022-12-07T04:19:14;98778.47;;;2.33;100.00
59531;BME280;45349;48.692;8.186;2022-12-07T04:21:41;98773.34;;;2.33;100.00
59531;BME280;45349;48.692;8.186;2022-12-07T04:24:08;98772.59;;;2.31;100.00
59531;BME280;45349;48.692;8.186;2022-12-07T04:26:35;98783.81;;;2.30;100.00
59531;BME280;45349;48.692;8.186;2022-12-07T04:29:02;98781.25;;;2.30;100.00
59531;BME280;45349;48.692;8.186;2022-12-07T04:31:28;98768.56;;;2.27;100.00
59531;BME280;45349;48.692;8.186;2022-12-07T04:33:55;98770.13;;;2.29;100.00
59531;BME280;45349;48.692;8.186;2022-12-07T04:36:23;98765.25;;;2.25;100.00
59531;BME280;45349;48.692;8.186;2022-12-07T04:38:50;98775.84;;;2.20;100.00
59531;BME280;45349;48.692;8.186;2022-12-07T04:41:19;98773.34;;;2.18;100.00
59531;BME280;45349;48.692;8.186;2022-12-07T04:43:52;98773.66;;;2.14;100.00
59531;BME280;45349;48.692;8.186;2022-12-07T04:46:19;98777.16;;;2.13;100.00
59531;BME280;45349;48.692;8.186;2022-12-07T04:48:46;98772.09;;;2.11;100.00
59531;BME280;45349;48.692;8.186;2022-12-07T04:51:12;98772.09;;;2.11;100.00
59531;BME280;45349;48.692;8.186;2022-12-07T04:53:41;98777.31;;;2.10;100.00
59531;BME280;45349;48.692;8.186;2022-12-07T04:56:07;98789.56;;;2.06;100.00
59531;BME280;45349;48.692;8.186;2022-12-07T04:58:34;98786.09;;;2.07;100.00
59531;BME280;45349;48.692;8.186;2022-12-07T05:01:00;98788.66;;;2.07;100.00
59531;BME280;45349;48.692;8.186;2022-12-07T05:03:27;98791.50;;;2.02;100.00
59531;BME280;45349;48.692;8.186;2022-12-07T05:05:53;98798.66;;;1.97;100.00
59531;BME280;45349;48.692;8.186;2022-12-07T05:08:20;98800.44;;;1.97;100.00
59531;BME280;45349;48.692;8.186;2022-12-07T05:10:49;98800.44;;;1.97;100.00
59531;BME280;45349;48.692;8.186;2022-12-07T05:13:16;98795.53;;;1.92;100.00
59531;BME280;45349;48.692;8.186;2022-12-07T05:15:42;98789.47;;;1.79;100.00
59531;BME280;45349;48.692;8.186;2022-12-07T05:18:09;98784.13;;;1.67;100.00
59531;BME280;45349;48.692;8.186;2022-12-07T05:20:37;98792.47;;;1.56;100.00
59531;BME280;45349;48.692;8.186;2022-12-07T05:23:04;98787.03;;;1.46;100.00
59531;BME280;45349;48.692;8.186;2022-12-07T05:25:31;98794.03;;;1.44;100.00
59531;BME280;45349;48.692;8.186;2022-12-07T05:27:59;98783.25;;;1.38;100.00
59531;BME280;45349;48.692;8.186;2022-12-07T05:30:26;98777.63;;;1.31;100.00
59531;BME280;45349;48.692;8.186;2022-12-07T05:32:53;98788.75;;;1.31;100.00
59531;BME280;45349;48.692;8.186;2022-12-07T05:35:19;98782.78;;;1.31;100.00
59531;BME280;45349;48.692;8.186;2022-12-07T05:37:46;98773.59;;;1.27;100.00
59531;BME280;45349;48.692;8.186;2022-12-07T05:40:13;98778.72;;;1.27;100.00
59531;BME280;45349;48.692;8.186;2022-12-07T05:42:41;98773.41;;;1.30;100.00
59531;BME280;45349;48.692;8.186;2022-12-07T05:45:09;98778.72;;;1.27;100.00
59531;BME280;45349;48.692;8.186;2022-12-07T05:47:36;98791.41;;;1.30;100.00
59531;BME280;45349;48.692;8.186;2022-12-07T05:50:04;98787.19;;;1.29;100.00
59531;BME280;45349;48.692;8.186;2022-12-07T05:52:31;98781.88;;;1.32;100.00
59531;BME280;45349;48.692;8.186;2022-12-07T05:54:57;98788.38;;;1.38;100.00
59531;BME280;45349;48.692;8.186;2022-12-07T05:57:24;98789.13;;;1.40;100.00
59531;BME280;45349;48.692;8.186;2022-12-07T05:59:50;98788.94;;;1.43;100.00
59531;BME280;45349;48.692;8.186;2022-12-07T06:02:17;98790.53;;;1.45;100.00
59531;BME280;45349;48.692;8.186;2022-12-07T06:04:45;98797.22;;;1.48;100.00
59531;BME280;45349;48.692;8.186;2022-12-07T06:07:15;98794.47;;;1.51;100.00
59531;BME280;45349;48.692;8.186;2022-12-07T06:09:42;98800.47;;;1.52;100.00
59531;BME280;45349;48.692;8.186;2022-12-07T06:12:10;98797.78;;;1.53;100.00
59531;BME280;45349;48.692;8.186;2022-12-07T06:14:54;98801.38;;;1.51;100.00
59531;BME280;45349;48.692;8.186;2022-12-07T06:17:22;98804.78;;;1.51;100.00
59531;BME280;45349;48.692;8.186;2022-12-07T06:19:49;98809.91;;;1.51;100.00
59531;BME280;45349;48.692;8.186;2022-12-07T06:22:15;98806.59;;;1.49;100.00
59531;BME280;45349;48.692;8.186;2022-12-07T06:24:43;98800.53;;;1.50;100.00
59531;BME280;45349;48.692;8.186;2022-12-07T06:27:10;98806.03;;;1.44;100.00
59531;BME280;45349;48.692;8.186;2022-12-07T06:29:36;98806.03;;;1.44;100.00
59531;BME280;45349;48.692;8.186;2022-12-07T06:32:03;98806.22;;;1.41;100.00
59531;BME280;45349;48.692;8.186;2022-12-07T06:34:32;98798.59;;;1.39;100.00
59531;BME280;45349;48.692;8.186;2022-12-07T06:36:58;98803.75;;;1.39;100.00
59531;BME280;45349;48.692;8.186;2022-12-07T06:39:27;98800.25;;;1.40;100.00
59531;BME280;45349;48.692;8.186;2022-12-07T06:41:54;98796.78;;;1.41;100.00
59531;BME280;45349;48.692;8.186;2022-12-07T06:44:21;98801.00;;;1.42;100.00
59531;BME280;45349;48.692;8.186;2022-12-07T06:46:48;98805.41;;;1.40;100.00
59531;BME280;45349;48.692;8.186;2022-12-07T06:49:15;98804.50;;;1.41;100.00
59531;BME280;45349;48.692;8.186;2022-12-07T06:51:43;98814.03;;;1.39;100.00
59531;BME280;45349;48.692;8.186;2022-12-07T06:54:10;98812.22;;;1.41;100.00
59531;BME280;45349;48.692;8.186;2022-12-07T06:56:37;98813.13;;;1.40;100.00
59531;BME280;45349;48.692;8.186;2022-12-07T06:59:05;98815.59;;;1.42;100.00
59531;BME280;45349;48.692;8.186;2022-12-07T07:01:32;98806.72;;;1.47;100.00
59531;BME280;45349;48.692;8.186;2022-12-07T07:03:59;98810.28;;;1.45;100.00
59531;BME280;45349;48.692;8.186;2022-12-07T07:06:26;98806.72;;;1.47;100.00
59531;BME280;45349;48.692;8.186;2022-12-07T07:08:54;98798.59;;;1.39;100.00
59531;BME280;45349;48.692;8.186;2022-12-07T07:11:20;98814.03;;;1.39;100.00
59531;BME280;45349;48.692;8.186;2022-12-07T07:13:47;98813.69;;;1.45;100.00
59531;BME280;45349;48.692;8.186;2022-12-07T07:16:13;98812.03;;;1.44;100.00
59531;BME280;45349;48.692;8.186;2022-12-07T07:18:40;98808.25;;;1.50;100.00
59531;BME280;45349;48.692;8.186;2022-12-07T07:21:06;98810.66;;;1.53;100.00
59531;BME280;45349;48.692;8.186;2022-12-07T07:23:33;98817.47;;;1.54;100.00
59531;BME280;45349;48.692;8.186;2022-12-07T07:26:01;98824.19;;;1.57;100.00
59531;BME280;45349;48.692;8.186;2022-12-07T07:28:28;98822.44;;;1.57;100.00
59531;BME280;45349;48.692;8.186;2022-12-07T07:30:54;98826.03;;;1.55;100.00
59531;BME280;45349;48.692;8.186;2022-12-07T07:33:21;98826.31;;;1.65;100.00
59531;BME280;45349;48.692;8.186;2022-12-07T07:35:47;98823.72;;;1.65;100.00
59531;BME280;45349;48.692;8.186;2022-12-07T07:38:14;98823.38;;;1.71;100.00
59531;BME280;45349;48.692;8.186;2022-12-07T07:40:41;98826.69;;;1.73;100.00
59531;BME280;45349;48.692;8.186;2022-12-07T07:43:08;98832.22;;;1.81;100.00
59531;BME280;45349;48.692;8.186;2022-12-07T07:45:35;98829.84;;;1.92;100.00
59531;BME280;45349;48.692;8.186;2022-12-07T07:48:02;98829.00;;;1.92;100.00
59531;BME280;45349;48.692;8.186;2022-12-07T07:50:29;98832.25;;;1.96;100.00
59531;BME280;45349;48.692;8.186;2022-12-07T07:52:57;98831.00;;;1.87;100.00
59531;BME280;45349;48.692;8.186;2022-12-07T07:55:23;98829.84;;;1.92;100.00
59531;BME280;45349;48.692;8.186;2022-12-07T07:57:50;98827.81;;;1.98;100.00
59531;BME280;45349;48.692;8.186;2022-12-07T08:00:18;98831.03;;;2.01;100.00
59531;BME280;45349;48.692;8.186;2022-12-07T08:02:45;98831.69;;;2.05;100.00
59531;BME280;45349;48.692;8.186;2022-12-07T08:05:12;98836.47;;;2.11;100.00
59531;BME280;45349;48.692;8.186;2022-12-07T08:07:39;98842.63;;;2.09;100.00
59531;BME280;45349;48.692;8.186;2022-12-07T08:10:08;98833.63;;;2.16;100.00
59531;BME280;45349;48.692;8.186;2022-12-07T08:12:37;98834.25;;;2.19;100.00
59531;BME280;45349;48.692;8.186;2022-12-07T08:15:26;98841.53;;;2.27;100.00
59531;BME280;45349;48.692;8.186;2022-12-07T08:17:53;98836.00;;;2.33;100.00
59531;BME280;45349;48.692;8.186;2022-12-07T08:20:20;98842.25;;;2.44;100.00
59531;BME280;45349;48.692;8.186;2022-12-07T08:22:46;98847.41;;;2.44;100.00
59531;BME280;45349;48.692;8.186;2022-12-07T08:25:13;98845.06;;;2.54;100.00
59531;BME280;45349;48.692;8.186;2022-12-07T08:27:39;98842.25;;;2.58;100.00
59531;BME280;45349;48.692;8.186;2022-12-07T08:30:07;98849.22;;;2.56;100.00
59531;BME280;45349;48.692;8.186;2022-12-07T08:32:35;98846.47;;;2.59;100.00
59531;BME280;45349;48.692;8.186;2022-12-07T08:35:01;98847.00;;;2.64;99.89
59531;BME280;45349;48.692;8.186;2022-12-07T08:37:28;98854.16;;;2.74;100.00
59531;BME280;45349;48.692;8.186;2022-12-07T08:39:55;98858.84;;;2.82;100.00
59531;BME280;45349;48.692;8.186;2022-12-07T08:42:21;98854.97;;;2.89;99.69
59531;BME280;45349;48.692;8.186;2022-12-07T08:44:52;98855.16;;;2.86;95.35
59531;BME280;45349;48.692;8.186;2022-12-07T08:47:19;98853.00;;;2.92;93.94
59531;BME280;45349;48.692;8.186;2022-12-07T08:49:48;98857.31;;;3.06;97.63
59531;BME280;45349;48.692;8.186;2022-12-07T08:52:17;98850.66;;;3.17;98.49
59531;BME280;45349;48.692;8.186;2022-12-07T08:54:44;98848.47;;;3.23;97.45
59531;BME280;45349;48.692;8.186;2022-12-07T08:57:11;98847.13;;;3.18;96.06
59531;BME280;45349;48.692;8.186;2022-12-07T08:59:38;98842.59;;;3.21;96.67
59531;BME280;45349;48.692;8.186;2022-12-07T09:02:06;98847.34;;;3.28;95.95
59531;BME280;45349;48.692;8.186;2022-12-07T09:04:32;98835.00;;;3.33;95.75
59531;BME280;45349;48.692;8.186;2022-12-07T09:07:00;98833.22;;;3.33;94.20
59531;BME280;45349;48.692;8.186;2022-12-07T09:09:27;98833.03;;;3.36;93.78
59531;BME280;45349;48.692;8.186;2022-12-07T09:11:53;98842.41;;;3.24;90.91
59531;BME280;45349;48.692;8.186;2022-12-07T09:14:20;98844.78;;;3.28;92.72
59531;BME280;45349;48.692;8.186;2022-12-07T09:16:46;98846.53;;;3.27;93.39
59531;BME280;45349;48.692;8.186;2022-12-07T09:19:13;98855.31;;;3.24;92.46
59531;BME280;45349;48.692;8.186;2022-12-07T09:21:39;98858.84;;;3.09;90.08
59531;BME280;45349;48.692;8.186;2022-12-07T09:24:07;98864.00;;;3.09;91.27
59531;BME280;45349;48.692;8.186;2022-12-07T09:26:34;98865.97;;;3.05;91.60
59531;BME280;45349;48.692;8.186;2022-12-07T09:29:02;98865.31;;;3.02;95.16
59531;BME280;45349;48.692;8.186;2022-12-07T09:31:29;98863.66;;;3.01;97.30
59531;BME280;45349;48.692;8.186;2022-12-07T09:33:56;98866.16;;;3.02;98.26
59531;BME280;45349;48.692;8.186;2022-12-07T09:36:23;98855.66;;;3.05;99.54
59531;BME280;45349;48.692;8.186;2022-12-07T09:38:50;98858.97;;;3.07;99.98
59531;BME280;45349;48.692;8.186;2022-12-07T09:41:18;98851.13;;;3.09;98.92
59531;BME280;45349;48.692;8.186;2022-12-07T09:43:45;98846.53;;;3.00;98.15
59531;BME280;45349;48.692;8.186;2022-12-07T09:46:14;98849.31;;;2.97;97.93
59531;BME280;45349;48.692;8.186;2022-12-07T09:48:43;98848.56;;;2.94;100.00
59531;BME280;45349;48.692;8.186;2022-12-07T09:51:15;98842.84;;;3.04;100.00
59531;BME280;45349;48.692;8.186;2022-12-07T09:53:42;98832.44;;;3.05;100.00
59531;BME280;45349;48.692;8.186;2022-12-07T09:56:11;98837.78;;;3.02;99.90
59531;BME280;45349;48.692;8.186;2022-12-07T09:58:41;98833.56;;;3.01;100.00
59531;BME280;45349;48.692;8.186;2022-12-07T10:01:12;98834.28;;;3.03;99.93
59531;BME280;45349;48.692;8.186;2022-12-07T10:03:40;98830.44;;;2.96;99.25
59531;BME280;45349;48.692;8.186;2022-12-07T10:06:10;98828.22;;;3.04;99.23
59531;BME280;45349;48.692;8.186;2022-12-07T10:08:39;98828.75;;;3.09;98.66
59531;BME280;45349;48.692;8.186;2022-12-07T10:11:06;98829.56;;;3.10;97.65
59531;BME280;45349;48.692;8.186;2022-12-07T10:13:37;98830.41;;;3.10;99.08
59531;BME280;45349;48.692;8.186;2022-12-07T10:16:09;98817.59;;;3.09;99.03
59531;BME280;45349;48.692;8.186;2022-12-07T10:18:54;98808.53;;;3.16;99.54
59531;BME280;45349;48.692;8.186;2022-12-07T10:21:22;98810.06;;;3.19;100.00
59531;BME280;45349;48.692;8.186;2022-12-07T10:24:00;98800.59;;;3.19;99.40
59531;BME280;45349;48.692;8.186;2022-12-07T10:26:33;98803.06;;;3.21;98.82
59531;BME280;45349;48.692;8.186;2022-12-07T10:29:02;98803.91;;;3.21;97.11
59531;BME280;45349;48.692;8.186;2022-12-07T10:31:40;98803.31;;;3.31;97.79
59531;BME280;45349;48.692;8.186;2022-12-07T10:34:20;98804.56;;;3.38;97.68
59531;BME280;45349;48.692;8.186;2022-12-07T10:36:47;98803.13;;;3.47;98.09
59531;BME280;45349;48.692;8.186;2022-12-07T10:39:15;98806.75;;;3.57;97.80
59531;BME280;45349;48.692;8.186;2022-12-07T10:41:54;98810.44;;;3.53;97.35
59531;BME280;45349;48.692;8.186;2022-12-07T10:44:23;98805.94;;;3.57;97.52
59531;BME280;45349;48.692;8.186;2022-12-07T10:47:01;98805.09;;;3.56;96.12
59531;BME280;45349;48.692;8.186;2022-12-07T10:49:45;98800.34;;;3.63;98.13
59531;BME280;45349;48.692;8.186;2022-12-07T10:52:26;98799.19;;;3.54;98.36
59531;BME280;45349;48.692;8.186;2022-12-07T10:55:10;98797.25;;;3.58;99.02
59531;BME280;45349;48.692;8.186;2022-12-07T10:57:47;98791.25;;;3.57;99.11
59531;BME280;45349;48.692;8.186;2022-12-07T11:00:19;98783.09;;;3.50;98.63
59531;BME280;45349;48.692;8.186;2022-12-07T11:03:27;98788.78;;;3.56;97.81
59531;BME280;45349;48.692;8.186;2022-12-07T11:06:07;98783.75;;;3.67;99.04
59531;BME280;45349;48.692;8.186;2022-12-07T11:08:50;98783.53;;;3.70;98.62
59531;BME280;45349;48.692;8.186;2022-12-07T11:11:24;98780.00;;;3.84;99.54
59531;BME280;45349;48.692;8.186;2022-12-07T11:13:57;98768.84;;;3.83;96.84
59531;BME280;45349;48.692;8.186;2022-12-07T11:16:34;98778.66;;;3.91;96.13
59531;BME280;45349;48.692;8.186;2022-12-07T11:19:18;98770.00;;;3.92;96.66
59531;BME280;45349;48.692;8.186;2022-12-07T11:21:55;98768.63;;;3.87;96.33
59531;BME280;45349;48.692;8.186;2022-12-07T11:24:26;98760.47;;;3.93;96.50
59531;BME280;45349;48.692;8.186;2022-12-07T11:27:04;98761.91;;;3.97;96.45
59531;BME280;45349;48.692;8.186;2022-12-07T11:29:46;98753.84;;;4.02;95.83
59531;BME280;45349;48.692;8.186;2022-12-07T11:32:21;98749.28;;;4.05;94.75
59531;BME280;45349;48.692;8.186;2022-12-07T11:34:59;98749.19;;;4.07;94.35
59531;BME280;45349;48.692;8.186;2022-12-07T11:37:32;98751.25;;;4.14;94.19
59531;BME280;45349;48.692;8.186;2022-12-07T11:40:02;98745.25;;;4.14;95.01
59531;BME280;45349;48.692;8.186;2022-12-07T11:42:33;98741.97;;;4.12;93.76
59531;BME280;45349;48.692;8.186;2022-12-07T11:45:04;98742.78;;;4.12;93.38
59531;BME280;45349;48.692;8.186;2022-12-07T11:47:41;98731.06;;;4.20;93.82
59531;BME280;45349;48.692;8.186;2022-12-07T11:50:23;98731.72;;;4.23;91.90
59531;BME280;45349;48.692;8.186;2022-12-07T11:52:55;98734.31;;;4.10;91.63
59531;BME280;45349;48.692;8.186;2022-12-07T11:55:28;98732.34;;;4.01;92.39
59531;BME280;45349;48.692;8.186;2022-12-07T11:58:03;98733.72;;;3.94;92.93
59531;BME280;45349;48.692;8.186;2022-12-07T12:00:30;98734.25;;;3.86;92.96
59531;BME280;45349;48.692;8.186;2022-12-07T12:03:01;98726.72;;;3.83;95.11
59531;BME280;45349;48.692;8.186;2022-12-07T12:05:32;98727.13;;;3.77;95.48
59531;BME280;45349;48.692;8.186;2022-12-07T12:08:04;98725.78;;;3.71;95.11
59531;BME280;45349;48.692;8.186;2022-12-07T12:10:49;98731.06;;;3.69;95.35
59531;BME280;45349;48.692;8.186;2022-12-07T12:13:44;98722.00;;;3.64;94.50
59531;BME280;45349;48.692;8.186;2022-12-07T12:16:37;98723.72;;;3.76;95.34
59531;BME280;45349;48.692;8.186;2022-12-07T12:19:19;98720.81;;;3.81;94.08
59531;BME280;45349;48.692;8.186;2022-12-07T12:21:55;98716.91;;;3.88;95.32
59531;BME280;45349;48.692;8.186;2022-12-07T12:24:25;98712.66;;;3.87;94.94
59531;BME280;45349;48.692;8.186;2022-12-07T12:27:03;98712.31;;;3.92;94.13
59531;BME280;45349;48.692;8.186;2022-12-07T12:29:33;98709.00;;;4.03;95.22
59531;BME280;45349;48.692;8.186;2022-12-07T12:32:13;98713.63;;;4.10;95.02
59531;BME280;45349;48.692;8.186;2022-12-07T12:34:57;98709.19;;;4.12;95.13
59531;BME280;45349;48.692;8.186;2022-12-07T12:37:45;98711.09;;;3.97;93.85
59531;BME280;45349;48.692;8.186;2022-12-07T12:40:42;98704.28;;;3.96;92.29
59531;BME280;45349;48.692;8.186;2022-12-07T12:43:45;98704.66;;;4.03;92.94
59531;BME280;45349;48.692;8.186;2022-12-07T12:46:48;98699.72;;;4.00;93.16
59531;BME280;45349;48.692;8.186;2022-12-07T12:49:36;98698.56;;;4.04;94.33
59531;BME280;45349;48.692;8.186;2022-12-07T12:52:48;98699.13;;;3.96;91.86
59531;BME280;45349;48.692;8.186;2022-12-07T12:55:46;98694.66;;;3.98;94.19
59531;BME280;45349;48.692;8.186;2022-12-07T12:58:31;98689.38;;;4.00;93.74
59531;BME280;45349;48.692;8.186;2022-12-07T13:07:01;98680.13;;;3.84;94.85
59531;BME280;45349;48.692;8.186;2022-12-07T13:09:31;98682.59;;;3.86;94.70
59531;BME280;45349;48.692;8.186;2022-12-07T13:12:04;98674.34;;;3.81;93.63
59531;BME280;45349;48.692;8.186;2022-12-07T13:14:43;98676.09;;;3.80;95.25
59531;BME280;45349;48.692;8.186;2022-12-07T13:23:32;98666.38;;;3.84;96.48
59531;BME280;45349;48.692;8.186;2022-12-07T13:26:12;98661.81;;;3.88;95.19
59531;BME280;45349;48.692;8.186;2022-12-07T13:28:42;98655.34;;;3.82;93.33
59531;BME280;45349;48.692;8.186;2022-12-07T13:31:31;98656.50;;;3.78;93.48
59531;BME280;45349;48.692;8.186;2022-12-07T13:33:59;98653.91;;;3.78;94.78
59531;BME280;45349;48.692;8.186;2022-12-07T13:36:27;98649.34;;;3.81;95.37